Jack Robertson — WDE5993 — position and weather

sailwx.info

Track history (hours):
 
Tides and Currents Weather Stations Pressure Air Temp Water Temp Dewpoint Dewpoint Depression Visibility Wind Speed Wind Dir Waves Ship Positions

Oceanographic research ship Jack Robertson (United States)

Owner: University of Washington Applied Physics Laboratory, Seattle, WA. More information available from US FCC via Universal Licensing System and Coast Guard Vessel Documentation Center.

Last reported at 2017-Sep-21 22:12 UTC. Time now 2017-Sep-25 11:51 UTC.
Position N 47°39' W 122°20'.

; draft 1.7 m.

Type: Other ship. MMSI: 367374350.

Date/timePositionNaut miles runAvg speedWind from/ knotsBaromVisibWave heightAir tempDewpointWater temp
2017-Sep-21 22:12N 47°39' W 122°20'2 5.4
2017-Sep-21 21:55N 47°39' W 122°22'2 3.2
2017-Sep-21 21:25N 47°40' W 122°24'1 2.2
2017-Sep-21 21:00N 47°41' W 122°24'2 4.6
2017-Sep-21 20:30N 47°43' W 122°25'1 1.9
2017-Sep-21 20:00N 47°44' W 122°24'0 0.2
2017-Sep-21 19:30N 47°44' W 122°24'1 2.3
2017-Sep-21 19:00N 47°45' W 122°24'0 0.0
2017-Sep-21 18:30N 47°45' W 122°24'0 0.4
2017-Sep-21 18:00N 47°45' W 122°24'0 0.7
2017-Sep-21 17:30N 47°45' W 122°24'0 0.8
2017-Sep-21 17:00N 47°44' W 122°24'0 0.6
2017-Sep-21 16:30N 47°44' W 122°24'0 0.8
2017-Sep-21 16:00N 47°43' W 122°25'1 2.5
2017-Sep-21 15:30N 47°42' W 122°24'1 2.4
2017-Sep-21 15:00N 47°43' W 122°24'0 0.6
2017-Sep-21 14:31N 47°43' W 122°25'2 4.7
2017-Sep-21 14:00N 47°41' W 122°24'0 0.0
2017-Sep-20 20:37N 47°41' W 122°24'0 0.8
2017-Sep-20 20:30N 47°41' W 122°24'3 5.5
2017-Sep-20 20:00N 47°44' W 122°25'1 1.5
2017-Sep-20 19:30N 47°44' W 122°24'2 3.8
2017-Sep-20 19:00N 47°42' W 122°25'1 1.5
2017-Sep-20 18:30N 47°42' W 122°24'1 2.3
2017-Sep-20 18:01N 47°43' W 122°24'0 0.4
2017-Sep-20 17:31N 47°44' W 122°24'0 0.5
2017-Sep-20 17:00N 47°44' W 122°24'0 0.4
2017-Sep-20 16:31N 47°44' W 122°24'0 0.0
2017-Sep-20 16:00N 47°44' W 122°24'0 0.4
2017-Sep-20 15:31N 47°44' W 122°24'0 0.4
2017-Sep-20 15:00N 47°44' W 122°25'3 2.9
2017-Sep-20 14:01N 47°41' W 122°24'0 0.0
2017-Sep-19 22:00N 47°41' W 122°24'0 0.0
2017-Sep-19 21:31N 47°41' W 122°24'2 4.1
2017-Sep-19 21:00N 47°43' W 122°25'2 3.3
2017-Sep-19 20:28N 47°43' W 122°23'0 0.0
2017-Sep-19 19:58N 47°43' W 122°23'0 0.1
2017-Sep-19 19:07N 47°43' W 122°23'0 0.3
2017-Sep-19 18:58N 47°43' W 122°23'0 0.1
2017-Sep-19 18:28N 47°43' W 122°23'0 0.0
2017-Sep-19 18:00N 47°43' W 122°23'0 0.0
2017-Sep-19 17:30N 47°43' W 122°23'0 0.0
2017-Sep-19 17:00N 47°43' W 122°23'0 0.5
2017-Sep-19 16:30N 47°44' W 122°23'2 3.6
2017-Sep-19 16:01N 47°45' W 122°24'1 1.6
2017-Sep-19 15:30N 47°44' W 122°25'1 1.5
2017-Sep-19 15:00N 47°44' W 122°25'2 3.8
2017-Sep-19 14:31N 47°42' W 122°25'1 0.1
2017-Sep-19 01:01N 47°41' W 122°24'0 0.0
2017-Sep-19 01:01N 47°41' W 122°24'2 3.5
2017-Sep-19 00:30N 47°42' W 122°25'1 2.9
2017-Sep-19 00:00N 47°44' W 122°24'0 0.9
2017-Sep-18 23:30N 47°44' W 122°25'1 1.5
2017-Sep-18 23:01N 47°44' W 122°24'0 0.9
2017-Sep-18 22:30N 47°44' W 122°24'0 0.6
2017-Sep-18 22:01N 47°44' W 122°25'0 0.7
2017-Sep-18 21:31N 47°44' W 122°24'0 0.7
2017-Sep-18 21:01N 47°43' W 122°25'0 0.6
2017-Sep-18 20:31N 47°43' W 122°25'2 4.7
2017-Sep-18 20:01N 47°41' W 122°24'0 0.0
2017-Sep-18 19:31N 47°41' W 122°24'0 0.0
2017-Sep-18 19:01N 47°41' W 122°24'1 1.8
2017-Sep-18 18:30N 47°40' W 122°24'0 0.5
2017-Sep-18 18:00N 47°40' W 122°24'1 1.1
2017-Sep-18 17:30N 47°40' W 122°23'3 5.1
2017-Sep-18 17:00N 47°39' W 122°19'  
2017-Sep-13 00:54N 47°39' W 122°19'0 0.1
2017-Sep-13 00:30N 47°39' W 122°19'0 0.0
2017-Sep-13 00:00N 47°39' W 122°19'2 3.1
2017-Sep-12 23:30N 47°39' W 122°21'2 4.3
2017-Sep-12 23:00N 47°40' W 122°24'4 7.3
2017-Sep-12 22:30N 47°44' W 122°25'4 8.6
2017-Sep-12 22:00N 47°48' W 122°25'4 8.5
2017-Sep-12 21:30N 47°52' W 122°27'4 7.9
2017-Sep-12 21:00N 47°56' W 122°28'4 7.7
2017-Sep-12 20:30N 47°58' W 122°33'10 2.5
2017-Sep-12 16:31N 48°07' W 122°38'0 9.0
2017-Sep-12 16:28N 48°07' W 122°38'5 7.5
2017-Sep-12 15:51N 48°02' W 122°37'3 7.6
2017-Sep-12 15:28N 47°60' W 122°35'3 7.3
2017-Sep-12 15:00N 47°57' W 122°31'4 7.9
2017-Sep-12 14:30N 47°54' W 122°28'4 7.9
2017-Sep-12 14:00N 47°50' W 122°27'4 8.9
2017-Sep-12 13:30N 47°46' W 122°25'4 8.4
2017-Sep-12 13:00N 47°42' W 122°25'2 4.3
2017-Sep-12 12:31N 47°40' W 122°24'3 5.6
2017-Sep-12 12:00N 47°39' W 122°20'  
Track history (hours):
 
Tides and Currents Weather Stations Pressure Air Temp Water Temp Dewpoint Dewpoint Depression Visibility Wind Speed Wind Dir Waves Ship Positions

Oceanographic research ship Jack Robertson (United States)

Owner: University of Washington Applied Physics Laboratory, Seattle, WA. More information available from US FCC via Universal Licensing System and Coast Guard Vessel Documentation Center.

Last reported at 2017-Sep-21 22:12 UTC. Time now 2017-Sep-25 11:51 UTC.
Position N 47°39' W 122°20'.

; draft 1.7 m.

Type: Other ship. MMSI: 367374350.

Date/timePositionNaut miles runAvg speedWind from/ knotsBaromVisibWave heightAir tempDewpointWater temp
2017-Sep-21 22:12N 47°39' W 122°20'2 5.4
2017-Sep-21 21:55N 47°39' W 122°22'2 3.2
2017-Sep-21 21:25N 47°40' W 122°24'1 2.2
2017-Sep-21 21:00N 47°41' W 122°24'2 4.6
2017-Sep-21 20:30N 47°43' W 122°25'1 1.9
2017-Sep-21 20:00N 47°44' W 122°24'0 0.2
2017-Sep-21 19:30N 47°44' W 122°24'1 2.3
2017-Sep-21 19:00N 47°45' W 122°24'0 0.0
2017-Sep-21 18:30N 47°45' W 122°24'0 0.4
2017-Sep-21 18:00N 47°45' W 122°24'0 0.7
2017-Sep-21 17:30N 47°45' W 122°24'0 0.8
2017-Sep-21 17:00N 47°44' W 122°24'0 0.6
2017-Sep-21 16:30N 47°44' W 122°24'0 0.8
2017-Sep-21 16:00N 47°43' W 122°25'1 2.5
2017-Sep-21 15:30N 47°42' W 122°24'1 2.4
2017-Sep-21 15:00N 47°43' W 122°24'0 0.6
2017-Sep-21 14:31N 47°43' W 122°25'2 4.7
2017-Sep-21 14:00N 47°41' W 122°24'0 0.0
2017-Sep-20 20:37N 47°41' W 122°24'0 0.8
2017-Sep-20 20:30N 47°41' W 122°24'3 5.5
2017-Sep-20 20:00N 47°44' W 122°25'1 1.5
2017-Sep-20 19:30N 47°44' W 122°24'2 3.8
2017-Sep-20 19:00N 47°42' W 122°25'1 1.5
2017-Sep-20 18:30N 47°42' W 122°24'1 2.3
2017-Sep-20 18:01N 47°43' W 122°24'0 0.4
2017-Sep-20 17:31N 47°44' W 122°24'0 0.5
2017-Sep-20 17:00N 47°44' W 122°24'0 0.4
2017-Sep-20 16:31N 47°44' W 122°24'0 0.0
2017-Sep-20 16:00N 47°44' W 122°24'0 0.4
2017-Sep-20 15:31N 47°44' W 122°24'0 0.4
2017-Sep-20 15:00N 47°44' W 122°25'3 2.9
2017-Sep-20 14:01N 47°41' W 122°24'0 0.0
2017-Sep-19 22:00N 47°41' W 122°24'0 0.0
2017-Sep-19 21:31N 47°41' W 122°24'2 4.1
2017-Sep-19 21:00N 47°43' W 122°25'2 3.3
2017-Sep-19 20:28N 47°43' W 122°23'0 0.0
2017-Sep-19 19:58N 47°43' W 122°23'0 0.1
2017-Sep-19 19:07N 47°43' W 122°23'0 0.3
2017-Sep-19 18:58N 47°43' W 122°23'0 0.1
2017-Sep-19 18:28N 47°43' W 122°23'0 0.0
2017-Sep-19 18:00N 47°43' W 122°23'0 0.0
2017-Sep-19 17:30N 47°43' W 122°23'0 0.0
2017-Sep-19 17:00N 47°43' W 122°23'0 0.5
2017-Sep-19 16:30N 47°44' W 122°23'2 3.6
2017-Sep-19 16:01N 47°45' W 122°24'1 1.6
2017-Sep-19 15:30N 47°44' W 122°25'1 1.5
2017-Sep-19 15:00N 47°44' W 122°25'2 3.8
2017-Sep-19 14:31N 47°42' W 122°25'1 0.1
2017-Sep-19 01:01N 47°41' W 122°24'0 0.0
2017-Sep-19 01:01N 47°41' W 122°24'2 3.5
2017-Sep-19 00:30N 47°42' W 122°25'1 2.9
2017-Sep-19 00:00N 47°44' W 122°24'0 0.9
2017-Sep-18 23:30N 47°44' W 122°25'1 1.5
2017-Sep-18 23:01N 47°44' W 122°24'0 0.9
2017-Sep-18 22:30N 47°44' W 122°24'0 0.6
2017-Sep-18 22:01N 47°44' W 122°25'0 0.7
2017-Sep-18 21:31N 47°44' W 122°24'0 0.7
2017-Sep-18 21:01N 47°43' W 122°25'0 0.6
2017-Sep-18 20:31N 47°43' W 122°25'2 4.7
2017-Sep-18 20:01N 47°41' W 122°24'0 0.0
2017-Sep-18 19:31N 47°41' W 122°24'0 0.0
2017-Sep-18 19:01N 47°41' W 122°24'1 1.8
2017-Sep-18 18:30N 47°40' W 122°24'0 0.5
2017-Sep-18 18:00N 47°40' W 122°24'1 1.1
2017-Sep-18 17:30N 47°40' W 122°23'3 5.1
2017-Sep-18 17:00N 47°39' W 122°19'  
2017-Sep-13 00:54N 47°39' W 122°19'0 0.1
2017-Sep-13 00:30N 47°39' W 122°19'0 0.0
2017-Sep-13 00:00N 47°39' W 122°19'2 3.1
2017-Sep-12 23:30N 47°39' W 122°21'2 4.3
2017-Sep-12 23:00N 47°40' W 122°24'4 7.3
2017-Sep-12 22:30N 47°44' W 122°25'4 8.6
2017-Sep-12 22:00N 47°48' W 122°25'4 8.5
2017-Sep-12 21:30N 47°52' W 122°27'4 7.9
2017-Sep-12 21:00N 47°56' W 122°28'4 7.7
2017-Sep-12 20:30N 47°58' W 122°33'10 2.5
2017-Sep-12 16:31N 48°07' W 122°38'0 9.0
2017-Sep-12 16:28N 48°07' W 122°38'5 7.5
2017-Sep-12 15:51N 48°02' W 122°37'3 7.6
2017-Sep-12 15:28N 47°60' W 122°35'3 7.3
2017-Sep-12 15:00N 47°57' W 122°31'4 7.9
2017-Sep-12 14:30N 47°54' W 122°28'4 7.9
2017-Sep-12 14:00N 47°50' W 122°27'4 8.9
2017-Sep-12 13:30N 47°46' W 122°25'4 8.4
2017-Sep-12 13:00N 47°42' W 122°25'2 4.3
2017-Sep-12 12:31N 47°40' W 122°24'3 5.6
2017-Sep-12 12:00N 47°39' W 122°20'  

Dump ship's entire track history